Time;durP1;ratioP1;P1;durP2;ratioP2;P2;SDS_P1;SDS_P2;PMS_P1;PMS_P2;Temp;Humidity;BMP_temperature;BMP_pressure;BME280_temperature;BME280_humidity;BME280_pressure;Samples;Min_cycle;Max_cycle;Signal;HPM_P1;HPM_P2
2021/01/25 00:00:21;;;;;;;271.13;242.03;;;;;21.80;98735.00;;;;2087647;28;20244;-66
2021/01/25 00:01:22;;;;;;;272.63;244.00;;;;;21.80;98728.00;;;;2087745;28;20292;-66
2021/01/25 00:02:22;;;;;;;260.53;233.00;;;;;21.70;98733.00;;;;2087604;28;20304;-66
2021/01/25 00:03:22;;;;;;;255.03;229.03;;;;;21.70;98731.00;;;;2087908;28;20220;-66
2021/01/25 00:04:23;;;;;;;263.27;235.07;;;;;21.70;98731.00;;;;2086893;28;20209;-66
2021/01/25 00:05:23;;;;;;;244.23;218.63;;;;;21.70;98726.00;;;;2087897;28;20217;-66
2021/01/25 00:06:23;;;;;;;239.53;214.33;;;;;21.70;98726.00;;;;2087724;28;20263;-66
2021/01/25 00:07:24;;;;;;;230.60;206.20;;;;;21.70;98726.00;;;;2087894;28;20239;-66
2021/01/25 00:08:24;;;;;;;227.70;203.90;;;;;21.70;98729.00;;;;2087790;28;20229;-66
2021/01/25 00:09:25;;;;;;;221.90;198.77;;;;;21.70;98728.00;;;;2087984;28;20830;-66
2021/01/25 00:10:25;;;;;;;220.03;196.33;;;;;21.70;98727.00;;;;2087071;28;20220;-66
2021/01/25 00:11:25;;;;;;;216.90;194.20;;;;;21.70;98730.00;;;;2087996;28;20613;-66
2021/01/25 00:12:26;;;;;;;217.77;194.40;;;;;21.70;98728.00;;;;2087651;28;20584;-66
2021/01/25 00:13:27;;;;;;;199.00;178.00;;;;;21.60;98730.00;;;;2087808;28;20692;-67
2021/01/25 00:14:27;;;;;;;196.83;175.80;;;;;21.70;98731.00;;;;2086997;28;20958;-66
2021/01/25 00:15:27;;;;;;;191.40;171.20;;;;;21.60;98731.00;;;;2087553;28;20707;-67
2021/01/25 00:16:28;;;;;;;192.63;171.63;;;;;21.60;98738.00;;;;2087591;28;20232;-67
2021/01/25 00:17:28;;;;;;;186.70;167.27;;;;;21.60;98733.00;;;;2087815;28;20695;-67
2021/01/25 00:18:28;;;;;;;182.47;162.70;;;;;21.60;98740.00;;;;2078762;28;20712;-66
2021/01/25 00:19:29;;;;;;;182.07;163.00;;;;;21.60;98739.00;;;;2078867;28;20920;-67
2021/01/25 00:20:29;;;;;;;180.37;161.53;;;;;21.60;98728.00;;;;2079541;28;20700;-67
2021/01/25 00:21:29;;;;;;;175.33;156.63;;;;;21.60;98735.00;;;;2087896;28;20710;-66
2021/01/25 00:22:30;;;;;;;175.17;156.30;;;;;21.60;98733.00;;;;2087672;28;20236;-66
2021/01/25 00:23:30;;;;;;;170.43;152.20;;;;;21.60;98733.00;;;;2087856;28;20214;-69
2021/01/25 00:24:30;;;;;;;166.33;149.00;;;;;21.50;98728.00;;;;2087179;28;20271;-66
2021/01/25 00:25:31;;;;;;;159.27;142.10;;;;;21.50;98733.00;;;;2087619;28;20245;-66
2021/01/25 00:26:31;;;;;;;161.67;144.17;;;;;21.60;98732.00;;;;2087490;28;20267;-66
2021/01/25 00:27:31;;;;;;;160.63;143.83;;;;;21.50;98731.00;;;;2087654;28;21044;-66
2021/01/25 00:28:31;;;;;;;159.33;142.43;;;;;21.50;98727.00;;;;2087655;28;20801;-66
2021/01/25 00:29:32;;;;;;;154.50;138.20;;;;;21.50;98731.00;;;;2087731;28;20703;-66
2021/01/25 00:30:32;;;;;;;154.93;138.10;;;;;21.50;98727.00;;;;2087645;28;20682;-66
2021/01/25 00:31:33;;;;;;;150.63;134.67;;;;;21.50;98733.00;;;;2087620;28;20738;-66
2021/01/25 00:32:33;;;;;;;147.60;131.87;;;;;21.50;98736.00;;;;2087498;28;20676;-66
2021/01/25 00:33:33;;;;;;;144.10;129.37;;;;;21.50;98738.00;;;;2087812;28;20671;-66
2021/01/25 00:34:34;;;;;;;140.10;125.50;;;;;21.50;98732.00;;;;2086777;28;20584;-66
2021/01/25 00:35:35;;;;;;;138.20;123.80;;;;;21.50;98735.00;;;;2087129;28;20291;-66
2021/01/25 00:36:35;;;;;;;138.67;124.30;;;;;21.50;98731.00;;;;2087541;28;20510;-66
2021/01/25 00:37:35;;;;;;;134.83;120.63;;;;;21.50;98737.00;;;;2087631;28;20220;-66
2021/01/25 00:38:35;;;;;;;131.53;118.10;;;;;21.50;98727.00;;;;2087502;28;20213;-66
2021/01/25 00:39:36;;;;;;;128.73;115.23;;;;;21.50;98735.00;;;;2087608;28;20213;-66
2021/01/25 00:40:37;;;;;;;126.93;113.83;;;;;21.50;98726.00;;;;2087329;28;20243;-66
2021/01/25 00:41:37;;;;;;;131.03;117.57;;;;;21.40;98730.00;;;;2087687;28;20252;-66
2021/01/25 00:42:37;;;;;;;116.33;104.53;;;;;21.40;98736.00;;;;2087617;28;20271;-66
2021/01/25 00:43:38;;;;;;;133.60;118.93;;;;;21.40;98736.00;;;;2087716;28;20233;-67
2021/01/25 00:44:38;;;;;;;129.30;115.77;;;;;21.40;98737.00;;;;2085999;28;20213;-67
2021/01/25 00:45:38;;;;;;;126.23;112.53;;;;;21.40;98732.00;;;;2087317;28;20237;-66
2021/01/25 00:46:39;;;;;;;118.03;105.80;;;;;21.40;98742.00;;;;2087401;28;20281;-66
2021/01/25 00:47:39;;;;;;;112.10;100.17;;;;;21.40;98734.00;;;;2087627;28;20232;-66
2021/01/25 00:48:39;;;;;;;100.50;90.10;;;;;21.30;98729.00;;;;2087450;28;20221;-66
2021/01/25 00:49:40;;;;;;;96.87;86.77;;;;;21.30;98731.00;;;;2087411;28;20681;-66
2021/01/25 00:50:40;;;;;;;90.67;80.83;;;;;21.30;98732.00;;;;2087497;28;20232;-66
2021/01/25 00:51:41;;;;;;;91.83;82.33;;;;;21.30;98727.00;;;;2078690;28;21245;-66
2021/01/25 00:52:42;;;;;;;87.40;78.32;;;;;21.30;98731.00;;;;2078659;28;20214;-66
2021/01/25 00:53:42;;;;;;;89.77;80.67;;;;;21.30;98728.00;;;;2087122;28;20282;-66
2021/01/25 00:54:42;;;;;;;91.47;81.97;;;;;21.30;98732.00;;;;2087157;28;20221;-66
2021/01/25 00:55:43;;;;;;;80.07;71.60;;;;;21.30;98730.00;;;;2087184;28;20216;-66
2021/01/25 00:56:46;;;;;;;83.00;74.70;;;;;21.30;98729.00;;;;2087469;28;20557;-66
2021/01/25 00:57:47;;;;;;;83.75;75.13;;;;;21.30;98725.00;;;;2078470;28;20237;-66
2021/01/25 00:58:47;;;;;;;81.97;73.53;;;;;21.30;98732.00;;;;2076479;28;20217;-66
2021/01/25 00:59:47;;;;;;;72.53;64.90;;;;;21.30;98733.00;;;;2081153;28;20217;-66
2021/01/25 01:00:48;;;;;;;83.30;74.80;;;;;21.30;98728.00;;;;2087624;28;20239;-66
2021/01/25 01:01:48;;;;;;;71.37;63.90;;;;;21.30;98736.00;;;;2087370;28;20243;-66
2021/01/25 01:02:48;;;;;;;72.53;64.73;;;;;21.20;98730.00;;;;2087432;28;20217;-66
2021/01/25 01:03:49;;;;;;;65.13;58.63;;;;;21.30;98724.00;;;;2078241;28;20256;-66
2021/01/25 01:04:49;;;;;;;69.07;61.97;;;;;21.20;98723.00;;;;2078415;28;20229;-66
2021/01/25 01:05:50;;;;;;;60.30;54.20;;;;;21.20;98732.00;;;;2087362;28;20255;-66
2021/01/25 01:06:50;;;;;;;60.70;54.30;;;;;21.20;98730.00;;;;2087453;28;20217;-66
2021/01/25 01:07:50;;;;;;;61.47;55.37;;;;;21.20;98726.00;;;;2087551;28;20237;-66
2021/01/25 01:08:51;;;;;;;61.07;54.57;;;;;21.20;98730.00;;;;2087098;28;20343;-66
2021/01/25 01:09:51;;;;;;;58.27;52.20;;;;;21.20;98721.00;;;;2087066;28;20213;-66
2021/01/25 01:10:51;;;;;;;58.17;52.23;;;;;21.20;98724.00;;;;2087468;28;20247;-66
2021/01/25 01:11:51;;;;;;;58.30;52.33;;;;;21.20;98716.00;;;;2087561;28;20219;-66
2021/01/25 01:12:52;;;;;;;55.30;49.60;;;;;21.20;98722.00;;;;2087432;28;20226;-66
2021/01/25 01:13:52;;;;;;;55.60;49.93;;;;;21.20;98724.00;;;;2086941;28;20224;-66
2021/01/25 01:14:52;;;;;;;54.23;48.73;;;;;21.20;98726.00;;;;2087187;28;20757;-66
2021/01/25 01:15:53;;;;;;;49.57;44.47;;;;;21.20;98723.00;;;;2087603;28;20580;-66
2021/01/25 01:16:53;;;;;;;50.57;45.47;;;;;21.20;98728.00;;;;2087262;28;20251;-65
2021/01/25 01:17:54;;;;;;;47.43;42.50;;;;;21.20;98723.00;;;;2087519;28;20212;-66
2021/01/25 01:18:54;;;;;;;48.97;43.90;;;;;21.20;98726.00;;;;2087331;28;20221;-66
2021/01/25 01:19:55;;;;;;;51.43;46.47;;;;;21.20;98717.00;;;;2087445;28;20213;-65
2021/01/25 01:20:55;;;;;;;47.40;42.50;;;;;21.10;98721.00;;;;2087228;28;20212;-66
2021/01/25 01:21:55;;;;;;;45.80;41.27;;;;;21.10;98722.00;;;;2087563;28;20209;-66
2021/01/25 01:22:56;;;;;;;51.87;46.70;;;;;21.10;98722.00;;;;2087281;28;20213;-66
2021/01/25 01:23:56;;;;;;;43.77;39.40;;;;;21.10;98719.00;;;;2087004;28;20290;-66
2021/01/25 01:24:56;;;;;;;40.60;36.47;;;;;21.10;98722.00;;;;2087072;28;20208;-66
2021/01/25 01:25:57;;;;;;;44.10;39.67;;;;;21.10;98715.00;;;;2087493;28;20698;-66
2021/01/25 01:26:57;;;;;;;39.43;35.50;;;;;21.10;98720.00;;;;2087447;28;20821;-66
2021/01/25 01:27:57;;;;;;;40.07;35.77;;;;;21.10;98720.00;;;;2087539;28;20727;-66
2021/01/25 01:28:58;;;;;;;41.40;37.30;;;;;21.10;98726.00;;;;2087145;28;20611;-66
2021/01/25 01:29:58;;;;;;;40.53;36.47;;;;;21.10;98717.00;;;;2087513;28;20259;-66
2021/01/25 01:30:58;;;;;;;39.73;35.63;;;;;21.10;98725.00;;;;2087254;28;20232;-65
2021/01/25 01:31:59;;;;;;;38.37;34.50;;;;;21.10;98715.00;;;;2087131;28;20211;-66
2021/01/25 01:32:59;;;;;;;39.50;35.57;;;;;21.10;98717.00;;;;2087247;28;20223;-66
2021/01/25 01:33:59;;;;;;;38.40;34.73;;;;;21.10;98722.00;;;;2086737;28;20215;-66
2021/01/25 01:35:00;;;;;;;36.80;33.00;;;;;21.10;98722.00;;;;2086724;28;20217;-66
2021/01/25 01:36:00;;;;;;;34.50;31.00;;;;;21.00;98724.00;;;;2087228;28;20255;-66
2021/01/25 01:37:00;;;;;;;32.67;29.40;;;;;21.10;98728.00;;;;2086779;28;20312;-66
2021/01/25 01:38:01;;;;;;;33.97;30.87;;;;;21.10;98722.00;;;;2087311;28;20215;-66
2021/01/25 01:39:01;;;;;;;32.80;29.43;;;;;21.10;98722.00;;;;2087070;28;20227;-66
2021/01/25 01:40:06;;;;;;;30.87;27.87;;;;;21.00;98722.00;;;;2087293;28;20217;-66
2021/01/25 01:41:07;;;;;;;30.80;27.58;;;;;21.00;98734.00;;;;2087234;28;20213;-66
2021/01/25 01:42:14;;;;;;;29.63;26.67;;;;;21.00;98727.00;;;;2087283;28;20290;-66
2021/01/25 01:43:14;;;;;;;31.55;28.45;;;;;21.00;98723.00;;;;2087391;28;20231;-66
2021/01/25 01:44:14;;;;;;;27.10;24.40;;;;;21.00;98719.00;;;;2086863;28;20213;-66
2021/01/25 01:45:15;;;;;;;27.10;24.50;;;;;21.00;98726.00;;;;2087254;28;20730;-66
2021/01/25 01:46:15;;;;;;;28.20;25.33;;;;;21.00;98676.00;;;;2087363;28;20227;-66
2021/01/25 01:47:19;;;;;;;25.70;23.17;;;;;21.00;98723.00;;;;2087587;28;20579;-66
2021/01/25 01:48:20;;;;;;;28.60;25.80;;;;;21.00;98719.00;;;;2089038;28;20291;-65
2021/01/25 01:49:21;;;;;;;26.92;24.17;;;;;21.00;98720.00;;;;2071474;28;20272;-66
2021/01/25 01:50:21;;;;;;;25.37;23.03;;;;;21.00;98720.00;;;;2071464;28;20225;-66
2021/01/25 01:51:21;;;;;;;24.50;22.10;;;;;21.00;98719.00;;;;2071401;28;20343;-66
2021/01/25 01:52:22;;;;;;;25.23;22.73;;;;;21.00;98725.00;;;;2060800;28;20222;-66
2021/01/25 01:53:22;;;;;;;27.33;24.63;;;;;21.00;98725.00;;;;2078626;28;20236;-66
2021/01/25 01:54:22;;;;;;;24.60;22.10;;;;;21.00;98725.00;;;;2071550;28;20781;-66
2021/01/25 01:55:23;;;;;;;23.73;21.30;;;;;21.00;98726.00;;;;2079061;28;20221;-66
2021/01/25 01:56:24;;;;;;;22.97;20.70;;;;;21.00;98723.00;;;;2088828;28;20301;-66
2021/01/25 01:57:24;;;;;;;26.90;24.17;;;;;21.00;98722.00;;;;2088781;28;20848;-66
2021/01/25 01:58:25;;;;;;;24.57;21.67;;;;;21.00;98723.00;;;;2088914;28;20221;-66
2021/01/25 01:59:25;;;;;;;22.47;20.33;;;;;21.00;98722.00;;;;2071846;28;20297;-66
2021/01/25 02:00:25;;;;;;;20.67;18.67;;;;;21.00;98726.00;;;;2072020;28;20232;-66
2021/01/25 02:01:26;;;;;;;22.13;19.87;;;;;21.00;98716.00;;;;2088788;28;20205;-66
2021/01/25 02:02:26;;;;;;;21.17;19.20;;;;;21.00;98722.00;;;;2088642;28;20217;-66
2021/01/25 02:03:26;;;;;;;19.80;17.93;;;;;21.00;98719.00;;;;2088753;28;20220;-66
2021/01/25 02:04:27;;;;;;;21.27;19.10;;;;;21.00;98732.00;;;;2087916;28;20217;-66
2021/01/25 02:05:27;;;;;;;19.63;17.83;;;;;21.00;98727.00;;;;2079858;28;20224;-66
2021/01/25 02:06:29;;;;;;;20.37;18.37;;;;;21.00;98727.00;;;;2080064;28;20245;-66
2021/01/25 02:07:29;;;;;;;19.27;17.27;;;;;20.90;98727.00;;;;2079918;28;20293;-66
2021/01/25 02:08:29;;;;;;;20.27;18.37;;;;;20.90;98730.00;;;;2063638;28;20215;-66
2021/01/25 02:09:30;;;;;;;20.47;18.53;;;;;20.90;98725.00;;;;2066810;28;20309;-66
2021/01/25 02:10:30;;;;;;;19.70;17.70;;;;;20.90;98734.00;;;;2071352;28;20302;-66
2021/01/25 02:11:30;;;;;;;20.53;18.33;;;;;20.90;98736.00;;;;2079268;28;20308;-66
2021/01/25 02:12:31;;;;;;;20.27;17.80;;;;;20.90;98740.00;;;;2078966;28;20260;-66
2021/01/25 02:13:31;;;;;;;17.60;16.00;;;;;20.90;98738.00;;;;2071645;28;20218;-66
2021/01/25 02:14:32;;;;;;;19.30;17.43;;;;;20.90;98741.00;;;;2068335;28;20547;-66
2021/01/25 02:15:32;;;;;;;17.23;15.53;;;;;20.90;98726.00;;;;2071192;28;20230;-66
2021/01/25 02:16:35;;;;;;;18.33;16.57;;;;;20.90;98737.00;;;;2079021;28;20673;-66
2021/01/25 02:17:35;;;;;;;16.83;15.15;;;;;20.90;98742.00;;;;2071359;28;20701;-66
2021/01/25 02:18:36;;;;;;;17.20;15.57;;;;;20.90;98746.00;;;;2079917;28;20225;-66
2021/01/25 02:19:57;;;;;;;16.30;14.70;;;;;20.90;98737.00;;;;2077082;28;20692;-66
2021/01/25 02:20:58;;;;;;;16.15;14.55;;;;;20.90;98733.00;;;;2072459;28;20295;-66
2021/01/25 02:22:16;;;;;;;16.00;14.40;;;;;20.90;98738.00;;;;2080804;28;20311;-66
2021/01/25 02:23:32;;;;;;;18.52;14.30;;;;;20.80;98742.00;;;;2080068;28;20329;-66
2021/01/25 02:24:35;;;;;;;16.55;14.93;;;;;20.90;98740.00;;;;2073367;28;20226;-66
2021/01/25 02:25:50;;;;;;;15.82;14.35;;;;;20.80;98737.00;;;;2071555;28;20334;-66
2021/01/25 02:27:21;;;;;;;16.35;13.43;;;;;20.80;98739.00;;;;2073922;28;20296;-66
2021/01/25 02:28:21;;;;;;;15.88;14.27;;;;;20.80;98739.00;;;;2076714;28;20244;-66
2021/01/25 02:29:22;;;;;;;15.97;14.37;;;;;20.80;98747.00;;;;2079652;28;20314;-66
2021/01/25 02:30:22;;;;;;;14.37;12.97;;;;;20.80;98736.00;;;;2079606;28;20235;-66
2021/01/25 02:31:22;;;;;;;14.10;12.70;;;;;20.80;98739.00;;;;2079783;28;20259;-66
2021/01/25 02:32:23;;;;;;;14.57;13.10;;;;;20.80;98725.00;;;;2071397;28;20213;-66
2021/01/25 02:33:23;;;;;;;14.00;12.60;;;;;20.80;98744.00;;;;2055476;28;20219;-66
2021/01/25 02:34:24;;;;;;;15.30;13.90;;;;;20.80;98742.00;;;;2063229;28;20303;-66
2021/01/25 02:35:25;;;;;;;13.75;12.48;;;;;20.80;98740.00;;;;2071466;28;20226;-66
2021/01/25 02:36:25;;;;;;;12.97;11.70;;;;;20.80;98745.00;;;;2071721;28;20223;-65
2021/01/25 02:37:26;;;;;;;12.23;11.13;;;;;20.80;98742.00;;;;2071479;28;20220;-66
2021/01/25 02:38:26;;;;;;;12.67;11.47;;;;;20.80;98738.00;;;;2055657;28;20223;-66
2021/01/25 02:39:26;;;;;;;13.47;12.27;;;;;20.80;98739.00;;;;2063167;28;20218;-66
2021/01/25 02:40:27;;;;;;;13.13;11.73;;;;;20.80;98742.00;;;;2071671;28;20319;-66
2021/01/25 02:41:27;;;;;;;12.97;11.77;;;;;20.80;98738.00;;;;2079477;28;20224;-66
2021/01/25 02:42:28;;;;;;;12.67;11.37;;;;;20.80;98741.00;;;;2079580;28;20218;-66
2021/01/25 02:43:28;;;;;;;11.23;10.23;;;;;20.80;98738.00;;;;2063364;28;20227;-66
2021/01/25 02:44:28;;;;;;;12.80;11.70;;;;;20.80;98740.00;;;;2071150;28;20215;-66
2021/01/25 02:45:29;;;;;;;12.67;11.33;;;;;20.70;98743.00;;;;2071563;28;20349;-66
2021/01/25 02:46:29;;;;;;;12.00;10.80;;;;;20.70;98738.00;;;;2071793;28;20650;-66
2021/01/25 02:47:29;;;;;;;12.03;10.93;;;;;20.70;98738.00;;;;2079508;28;20223;-66
2021/01/25 02:48:30;;;;;;;11.87;10.63;;;;;20.70;98752.00;;;;2071606;28;20218;-66
2021/01/25 02:49:30;;;;;;;11.27;10.27;;;;;20.70;98745.00;;;;2079483;28;20259;-66
2021/01/25 02:50:31;;;;;;;11.37;10.23;;;;;20.70;98740.00;;;;2079522;28;20210;-66
2021/01/25 02:51:31;;;;;;;10.77;9.77;;;;;20.70;98745.00;;;;2079472;28;20214;-66
2021/01/25 02:52:31;;;;;;;11.43;10.43;;;;;20.70;98741.00;;;;2088335;28;20286;-66
2021/01/25 02:53:32;;;;;;;11.23;10.13;;;;;20.70;98750.00;;;;2088418;28;20237;-66
2021/01/25 02:54:32;;;;;;;9.93;9.03;;;;;20.70;98745.00;;;;2087845;28;20225;-66
2021/01/25 02:55:33;;;;;;;11.20;10.10;;;;;20.70;98739.00;;;;2079482;28;20862;-66
2021/01/25 02:56:33;;;;;;;11.40;10.30;;;;;20.70;98750.00;;;;2071458;28;20463;-66
2021/01/25 02:57:34;;;;;;;10.30;9.20;;;;;20.70;98742.00;;;;2079096;28;20225;-66
2021/01/25 02:58:34;;;;;;;10.40;9.50;;;;;20.70;98744.00;;;;2071145;28;20246;-66
2021/01/25 02:59:35;;;;;;;10.50;9.50;;;;;20.70;98740.00;;;;2071268;28;20222;-66
2021/01/25 03:00:36;;;;;;;9.70;8.80;;;;;20.70;98748.00;;;;2079595;28;20221;-66
2021/01/25 03:01:36;;;;;;;10.30;9.30;;;;;20.70;98749.00;;;;2088274;28;20695;-66
2021/01/25 03:02:36;;;;;;;9.50;8.60;;;;;20.70;98747.00;;;;2088102;28;20224;-66
2021/01/25 03:03:37;;;;;;;10.13;9.23;;;;;20.70;98750.00;;;;2087967;28;20247;-66
2021/01/25 03:04:37;;;;;;;8.23;7.53;;;;;20.70;98741.00;;;;2078906;28;20245;-65
2021/01/25 03:05:37;;;;;;;9.87;8.93;;;;;20.70;98748.00;;;;2071129;28;20221;-66
2021/01/25 03:06:38;;;;;;;9.53;8.63;;;;;20.70;98752.00;;;;2079617;28;20206;-66
2021/01/25 03:07:38;;;;;;;10.07;8.60;;;;;20.70;98746.00;;;;2071455;28;20782;-66
2021/01/25 03:08:38;;;;;;;9.60;8.70;;;;;20.70;98753.00;;;;2079485;28;20708;-66
2021/01/25 03:09:38;;;;;;;8.70;7.93;;;;;20.70;98748.00;;;;2088079;28;20769;-66
2021/01/25 03:10:39;;;;;;;9.17;8.30;;;;;20.70;98747.00;;;;2079438;28;20213;-66
2021/01/25 03:11:39;;;;;;;7.93;7.13;;;;;20.70;98745.00;;;;2079501;28;20224;-66
2021/01/25 03:12:40;;;;;;;9.37;8.47;;;;;20.70;98755.00;;;;2088281;28;20300;-65
2021/01/25 03:13:40;;;;;;;8.40;7.70;;;;;20.60;98749.00;;;;2079370;28;20367;-66
2021/01/25 03:14:44;;;;;;;8.43;7.60;;;;;20.60;98745.00;;;;2078997;28;20306;-66
2021/01/25 03:15:44;;;;;;;8.40;7.70;;;;;20.60;98754.00;;;;2079563;28;20223;-66
2021/01/25 03:16:44;;;;;;;8.57;7.77;;;;;20.60;98753.00;;;;2079357;28;20280;-66
2021/01/25 03:17:45;;;;;;;8.00;7.30;;;;;20.60;98752.00;;;;2079411;28;20246;-66
2021/01/25 03:18:45;;;;;;;8.80;7.60;;;;;20.60;98752.00;;;;2088322;28;20212;-66
2021/01/25 03:19:45;;;;;;;8.50;7.67;;;;;20.60;98755.00;;;;2088249;28;20204;-66
2021/01/25 03:20:48;;;;;;;7.20;6.53;;;;;20.60;98750.00;;;;2088179;28;20553;-66
2021/01/25 03:21:49;;;;;;;7.50;6.80;;;;;20.60;98754.00;;;;2088218;28;20208;-66
2021/01/25 03:22:50;;;;;;;7.72;7.03;;;;;20.60;98756.00;;;;2088143;28;20219;-66
2021/01/25 03:23:51;;;;;;;7.43;6.73;;;;;20.60;98753.00;;;;2087735;28;20205;-66
2021/01/25 03:24:52;;;;;;;8.07;7.38;;;;;20.60;98762.00;;;;2088161;28;20220;-66
2021/01/25 03:25:52;;;;;;;6.77;6.13;;;;;20.60;98757.00;;;;2088013;28;20578;-65
2021/01/25 03:26:52;;;;;;;6.83;6.23;;;;;20.60;98749.00;;;;2088215;28;20235;-67
2021/01/25 03:27:53;;;;;;;6.47;5.87;;;;;20.60;98756.00;;;;2088355;28;20224;-66
2021/01/25 03:28:53;;;;;;;7.53;6.80;;;;;20.60;98748.00;;;;2088310;28;20270;-66
2021/01/25 03:29:54;;;;;;;6.53;6.03;;;;;20.60;98760.00;;;;2088259;28;20549;-66
2021/01/25 03:30:54;;;;;;;7.27;6.57;;;;;20.60;98752.00;;;;2088053;28;20776;-66
2021/01/25 03:31:55;;;;;;;7.27;6.60;;;;;20.50;98750.00;;;;2087957;28;20246;-66
2021/01/25 03:32:55;;;;;;;6.20;5.70;;;;;20.40;98753.00;;;;2088149;28;20223;-66
2021/01/25 03:33:55;;;;;;;6.90;6.30;;;;;20.60;98751.00;;;;2087627;28;20220;-66
2021/01/25 03:34:56;;;;;;;5.53;5.03;;;;;20.50;98754.00;;;;2087574;28;20269;-65
2021/01/25 03:35:56;;;;;;;7.03;6.33;;;;;20.50;98760.00;;;;2077825;28;20220;-66
2021/01/25 03:36:56;;;;;;;6.23;5.67;;;;;20.50;98757.00;;;;2077628;28;20329;-66
2021/01/25 03:37:57;;;;;;;5.90;5.40;;;;;20.50;98765.00;;;;2087319;28;20500;-66
2021/01/25 03:38:57;;;;;;;6.00;5.50;;;;;20.50;98768.00;;;;2087844;28;20224;-66
2021/01/25 03:39:58;;;;;;;5.70;5.20;;;;;20.50;98761.00;;;;2087985;28;20282;-66
2021/01/25 03:40:58;;;;;;;5.80;5.30;;;;;20.50;98761.00;;;;2088079;28;20264;-66
2021/01/25 03:41:59;;;;;;;6.00;5.40;;;;;20.60;98752.00;;;;2088163;28;20243;-66
2021/01/25 03:42:59;;;;;;;5.23;4.83;;;;;20.60;98757.00;;;;2088372;28;20310;-66
2021/01/25 03:43:59;;;;;;;6.03;5.53;;;;;20.60;98756.00;;;;2087608;28;20233;-66
2021/01/25 03:45:00;;;;;;;5.37;4.97;;;;;20.50;98761.00;;;;2087949;28;20263;-66
2021/01/25 03:46:00;;;;;;;5.93;5.43;;;;;20.50;98757.00;;;;2087867;28;20936;-66
2021/01/25 03:47:01;;;;;;;5.57;5.00;;;;;20.50;98763.00;;;;2088024;28;20228;-66
2021/01/25 03:48:01;;;;;;;5.27;4.87;;;;;20.50;98757.00;;;;2088058;28;20224;-66
2021/01/25 03:49:01;;;;;;;5.63;5.03;;;;;20.50;98759.00;;;;2088102;28;20246;-66
2021/01/25 03:50:02;;;;;;;6.10;5.60;;;;;20.50;98763.00;;;;2087964;28;20339;-66
2021/01/25 03:51:03;;;;;;;5.40;4.90;;;;;20.50;98766.00;;;;2087927;28;20304;-66
2021/01/25 03:52:04;;;;;;;5.40;4.90;;;;;20.50;98774.00;;;;2087882;28;20229;-66
2021/01/25 03:53:04;;;;;;;5.33;4.83;;;;;20.50;98768.00;;;;2088095;28;20216;-66
2021/01/25 03:54:06;;;;;;;5.73;5.23;;;;;20.50;98761.00;;;;2087529;28;20281;-66
2021/01/25 03:55:09;;;;;;;5.45;4.95;;;;;20.50;98768.00;;;;2087542;28;20754;-65
2021/01/25 03:56:09;;;;;;;4.60;4.20;;;;;20.50;98770.00;;;;2087900;28;20212;-66
2021/01/25 03:57:09;;;;;;;5.10;4.67;;;;;20.50;98777.00;;;;2087985;28;20623;-66
2021/01/25 03:58:10;;;;;;;5.30;4.80;;;;;20.50;98765.00;;;;2087906;28;20336;-66
2021/01/25 03:59:10;;;;;;;4.60;4.20;;;;;20.50;98768.00;;;;2079152;28;20209;-66
2021/01/25 04:00:11;;;;;;;4.93;4.47;;;;;20.50;98774.00;;;;2078920;28;20268;-66
2021/01/25 04:01:11;;;;;;;4.90;4.50;;;;;20.50;98778.00;;;;2087607;28;20242;-66
2021/01/25 04:02:13;;;;;;;5.17;4.67;;;;;20.50;98763.00;;;;2087536;28;20450;-66
2021/01/25 04:03:13;;;;;;;4.50;4.10;;;;;20.50;98780.00;;;;2085684;28;20213;-66
2021/01/25 04:04:13;;;;;;;4.63;4.23;;;;;20.50;98766.00;;;;2086873;28;20224;-66
2021/01/25 04:05:14;;;;;;;4.30;3.90;;;;;20.40;98774.00;;;;2087729;28;20213;-66
2021/01/25 04:06:14;;;;;;;4.43;4.03;;;;;20.40;98767.00;;;;2087780;28;20221;-66
2021/01/25 04:07:14;;;;;;;4.00;3.70;;;;;20.50;98772.00;;;;2087947;28;20237;-65
2021/01/25 04:08:15;;;;;;;4.47;4.10;;;;;20.40;98768.00;;;;2087763;28;20768;-66
2021/01/25 04:09:15;;;;;;;4.23;3.93;;;;;20.50;98769.00;;;;2087466;28;20619;-66
2021/01/25 04:10:15;;;;;;;4.47;4.07;;;;;20.40;98778.00;;;;2087059;28;20200;-66
2021/01/25 04:11:16;;;;;;;3.90;3.60;;;;;20.40;98774.00;;;;2087201;28;20258;-65
2021/01/25 04:12:16;;;;;;;4.47;4.07;;;;;20.40;98785.00;;;;2084261;28;20234;-66
2021/01/25 04:13:16;;;;;;;4.33;4.03;;;;;20.40;98774.00;;;;2088030;28;20697;-66
2021/01/25 04:14:17;;;;;;;4.57;4.17;;;;;20.40;98771.00;;;;2087275;28;20722;-66
2021/01/25 04:15:17;;;;;;;4.30;3.90;;;;;20.40;98782.00;;;;2087336;28;20572;-66
2021/01/25 04:16:17;;;;;;;4.33;3.93;;;;;20.40;98774.00;;;;2087465;28;20633;-66
2021/01/25 04:17:18;;;;;;;4.00;3.60;;;;;20.40;98781.00;;;;2087861;28;20322;-66
2021/01/25 04:18:18;;;;;;;4.60;4.20;;;;;20.40;98778.00;;;;2087617;28;20220;-66
2021/01/25 04:19:19;;;;;;;4.30;3.93;;;;;20.40;98785.00;;;;2077631;28;20228;-66
2021/01/25 04:20:19;;;;;;;4.00;3.70;;;;;20.40;98781.00;;;;2087238;28;20212;-66
2021/01/25 04:21:19;;;;;;;4.53;3.77;;;;;20.40;98784.00;;;;2087359;28;20583;-66
2021/01/25 04:22:20;;;;;;;4.40;4.07;;;;;20.40;98778.00;;;;2087438;28;20209;-66
2021/01/25 04:23:20;;;;;;;4.60;4.20;;;;;20.40;98783.00;;;;2087883;28;20213;-66
2021/01/25 04:24:20;;;;;;;3.20;3.00;;;;;20.40;98791.00;;;;2087008;28;20244;-66
2021/01/25 04:25:21;;;;;;;3.53;3.23;;;;;20.40;98785.00;;;;2087629;28;20216;-66
2021/01/25 04:26:21;;;;;;;3.77;3.47;;;;;20.40;98795.00;;;;2087641;28;20252;-66
2021/01/25 04:27:21;;;;;;;3.73;3.43;;;;;20.40;98788.00;;;;2087862;28;20215;-66
2021/01/25 04:28:22;;;;;;;3.93;3.63;;;;;20.40;98796.00;;;;2087137;28;20216;-66
2021/01/25 04:29:22;;;;;;;3.73;3.43;;;;;20.40;98798.00;;;;2081093;28;20491;-66
2021/01/25 04:30:24;;;;;;;3.53;3.23;;;;;20.40;98792.00;;;;2087115;28;20244;-66
2021/01/25 04:31:24;;;;;;;3.80;3.50;;;;;20.40;98791.00;;;;2087497;28;20220;-66
2021/01/25 04:32:25;;;;;;;3.73;3.43;;;;;20.40;98791.00;;;;2086598;28;20713;-66
2021/01/25 04:33:25;;;;;;;3.93;3.53;;;;;20.40;98794.00;;;;2087470;28;20222;-66
2021/01/25 04:34:25;;;;;;;3.63;3.33;;;;;20.30;98793.00;;;;2086739;28;20281;-66
2021/01/25 04:35:26;;;;;;;3.90;3.50;;;;;20.30;98797.00;;;;2087143;28;20212;-66
2021/01/25 04:36:27;;;;;;;3.70;3.40;;;;;20.30;98791.00;;;;2087619;28;20295;-66
2021/01/25 04:37:27;;;;;;;3.40;3.10;;;;;20.30;98795.00;;;;2086628;28;20581;-66
2021/01/25 04:38:28;;;;;;;3.50;3.20;;;;;20.30;98793.00;;;;2087552;28;20219;-66
2021/01/25 04:39:28;;;;;;;3.37;3.07;;;;;20.30;98796.00;;;;2086919;28;20208;-66
2021/01/25 04:40:28;;;;;;;3.27;3.00;;;;;20.30;98792.00;;;;2087492;28;20777;-66
2021/01/25 04:41:29;;;;;;;3.60;3.30;;;;;20.30;98804.00;;;;2087559;28;20795;-66
2021/01/25 04:42:29;;;;;;;3.43;2.90;;;;;20.30;98800.00;;;;2087445;28;20758;-66
2021/01/25 04:43:29;;;;;;;3.13;2.83;;;;;20.30;98798.00;;;;2087566;28;20726;-66
2021/01/25 04:44:30;;;;;;;3.20;2.90;;;;;20.30;98797.00;;;;2070030;28;20221;-66
2021/01/25 04:45:31;;;;;;;3.20;2.93;;;;;20.30;98798.00;;;;2070394;28;20218;-66
2021/01/25 04:46:32;;;;;;;3.13;2.92;;;;;20.30;98796.00;;;;2078731;28;20679;-66
2021/01/25 04:47:32;;;;;;;3.10;2.90;;;;;20.30;98800.00;;;;2070497;28;20273;-66
2021/01/25 04:48:32;;;;;;;3.57;3.27;;;;;20.30;98799.00;;;;2070161;28;20218;-66
2021/01/25 04:49:32;;;;;;;3.00;2.70;;;;;20.30;98791.00;;;;2078802;28;20228;-66
2021/01/25 04:50:33;;;;;;;3.30;3.00;;;;;20.30;98803.00;;;;2062539;28;20896;-66
2021/01/25 04:51:33;;;;;;;3.20;3.00;;;;;20.20;98800.00;;;;2054524;28;20713;-66
2021/01/25 04:52:34;;;;;;;2.80;2.60;;;;;20.30;98814.00;;;;2070230;28;20320;-66
2021/01/25 04:53:34;;;;;;;3.17;2.90;;;;;20.30;98794.00;;;;2078605;28;20228;-66
2021/01/25 04:54:34;;;;;;;3.10;2.90;;;;;20.30;98804.00;;;;2070098;28;20236;-66
2021/01/25 04:55:35;;;;;;;3.10;2.70;;;;;20.10;98809.00;;;;2078568;28;20233;-66
2021/01/25 04:56:35;;;;;;;2.70;2.50;;;;;20.30;98812.00;;;;2062475;28;20308;-66
2021/01/25 04:57:36;;;;;;;4.47;3.17;;;;;20.30;98798.00;;;;2070422;28;20225;-65
2021/01/25 04:58:36;;;;;;;3.20;2.97;;;;;20.30;98803.00;;;;2078793;28;20228;-65